Time;durP1;ratioP1;P1;durP2;ratioP2;P2;SDS_P1;SDS_P2;PMS_P1;PMS_P2;Temp;Humidity;BMP_temperature;BMP_pressure;BME280_temperature;BME280_humidity;BME280_pressure;Samples;Min_cycle;Max_cycle;Signal;HPM_P1;HPM_P2
2021/05/15 00:00:59;;;;;;;1.60;1.15;;;;;;;12.24;72.55;99688.41;4998886;28;20539;-84
2021/05/15 00:03:25;;;;;;;3.25;1.30;;;;;;;12.30;71.73;99684.50;5016686;28;20045;-84
2021/05/15 00:05:55;;;;;;;2.78;1.10;;;;;;;12.22;72.00;99674.38;5011076;28;20075;-82
2021/05/15 00:08:20;;;;;;;1.70;1.00;;;;;;;12.22;72.26;99685.00;5014321;28;20033;-85
2021/05/15 00:10:48;;;;;;;2.75;1.30;;;;;;;12.24;71.92;99685.75;5014708;28;20065;-85
2021/05/15 00:13:14;;;;;;;1.40;1.00;;;;;;;12.22;71.36;99681.50;5017788;28;20528;-84
2021/05/15 00:15:39;;;;;;;3.80;1.20;;;;;;;12.18;71.63;99677.31;4997950;28;20037;-84
2021/05/15 00:18:06;;;;;;;3.78;1.30;;;;;;;12.16;71.75;99674.78;5017109;28;20064;-84
2021/05/15 00:20:32;;;;;;;2.30;1.08;;;;;;;12.13;72.03;99674.97;5016991;28;21247;-84
2021/05/15 00:22:57;;;;;;;1.85;1.10;;;;;;;12.14;71.59;99675.81;5013663;28;20026;-84
2021/05/15 00:25:22;;;;;;;3.00;1.20;;;;;;;12.20;71.52;99670.13;4995291;28;20041;-85
2021/05/15 00:27:49;;;;;;;1.40;1.25;;;;;;;12.25;71.45;99681.31;5013117;28;20046;-85
2021/05/15 00:30:16;;;;;;;1.98;1.10;;;;;;;12.20;71.52;99673.63;5028776;28;20034;-83
2021/05/15 00:32:43;;;;;;;1.33;1.15;;;;;;;12.19;71.71;99669.28;5025546;28;20042;-85
2021/05/15 00:35:10;;;;;;;1.90;1.10;;;;;;;12.24;71.70;99672.50;5014141;28;20044;-85
2021/05/15 00:37:35;;;;;;;1.80;0.95;;;;;;;12.20;71.33;99673.63;5012600;28;20038;-85
2021/05/15 00:40:03;;;;;;;3.28;1.23;;;;;;;12.16;70.84;99680.09;5017786;28;20048;-85
2021/05/15 00:42:28;;;;;;;1.65;1.00;;;;;;;12.17;71.54;99681.78;5020749;28;20066;-85
2021/05/15 00:44:55;;;;;;;1.73;1.02;;;;;;;12.16;71.48;99685.38;5013694;28;20330;-85
2021/05/15 00:47:22;;;;;;;1.63;1.10;;;;;;;12.17;71.66;99679.13;5017737;28;20037;-84
2021/05/15 00:49:50;;;;;;;2.35;1.20;;;;;;;12.18;71.64;99678.19;5012874;28;20069;-85
2021/05/15 00:52:18;;;;;;;1.33;1.15;;;;;;;12.14;71.67;99675.81;5017212;28;20034;-85
2021/05/15 00:54:44;;;;;;;1.42;1.05;;;;;;;12.11;72.26;99681.34;5011170;28;20054;-85
2021/05/15 00:57:11;;;;;;;2.13;0.98;;;;;;;12.10;72.22;99675.19;5017320;28;20041;-84
2021/05/15 00:59:39;;;;;;;2.10;1.10;;;;;;;12.07;72.59;99683.34;5014903;28;20025;-84
2021/05/15 01:02:09;;;;;;;2.28;1.17;;;;;;;12.00;72.32;99674.06;5019116;28;20054;-84
2021/05/15 01:04:35;;;;;;;3.07;1.53;;;;;;;11.94;73.03;99672.66;5026956;28;20046;-84
2021/05/15 01:07:03;;;;;;;2.83;1.20;;;;;;;11.89;73.20;99677.41;5028379;28;20109;-83
2021/05/15 01:09:29;;;;;;;1.30;1.17;;;;;;;11.89;73.54;99677.41;5031246;28;20034;-82
2021/05/15 01:11:55;;;;;;;3.22;1.65;;;;;;;11.85;73.71;99675.88;5021334;28;20417;-85
2021/05/15 01:14:25;;;;;;;1.75;1.45;;;;;;;11.84;73.95;99674.19;5014248;28;20060;-83
2021/05/15 01:16:50;;;;;;;3.35;1.63;;;;;;;11.83;74.14;99671.63;4997121;28;20068;-83
2021/05/15 01:19:16;;;;;;;3.13;1.77;;;;;;;11.85;73.97;99667.06;4997359;28;20025;-84
2021/05/15 01:21:42;;;;;;;1.90;1.60;;;;;;;11.92;74.09;99673.72;5012538;28;20545;-84
2021/05/15 01:24:08;;;;;;;3.65;1.92;;;;;;;11.91;73.67;99675.50;5024686;28;20443;-83
2021/05/15 01:26:33;;;;;;;2.47;1.90;;;;;;;11.86;74.41;99666.13;5014469;28;20489;-83
2021/05/15 01:29:03;;;;;;;2.78;1.80;;;;;;;11.78;74.16;99661.34;5017382;28;20045;-84
2021/05/15 01:31:30;;;;;;;2.78;1.77;;;;;;;11.71;74.50;99665.28;5012470;28;20051;-85
2021/05/15 01:33:56;;;;;;;2.45;1.63;;;;;;;11.67;74.29;99669.06;5020666;28;20021;-83
2021/05/15 01:36:23;;;;;;;2.63;1.90;;;;;;;11.59;74.32;99668.69;5029902;28;20034;-84
2021/05/15 01:38:50;;;;;;;3.88;2.20;;;;;;;11.56;74.85;99661.78;5016594;28;20042;-84
2021/05/15 01:41:18;;;;;;;3.08;2.08;;;;;;;11.53;74.70;99661.13;5032080;28;20026;-84
2021/05/15 01:43:44;;;;;;;2.75;1.80;;;;;;;11.51;74.59;99660.34;5029314;28;20056;-84
2021/05/15 01:46:12;;;;;;;3.30;2.08;;;;;;;11.48;75.15;99655.28;5018794;28;20033;-83
2021/05/15 01:48:39;;;;;;;3.67;2.03;;;;;;;11.49;74.64;99651.69;5016424;28;20054;-83
2021/05/15 01:51:06;;;;;;;3.28;2.15;;;;;;;11.46;74.60;99647.41;5011423;28;20056;-83
2021/05/15 01:53:36;;;;;;;2.97;1.92;;;;;;;11.46;74.69;99658.03;5029831;28;20026;-83
2021/05/15 01:56:04;;;;;;;2.78;1.65;;;;;;;11.46;75.22;99657.16;5029561;28;20037;-83
2021/05/15 01:58:30;;;;;;;2.97;1.70;;;;;;;11.46;74.98;99658.03;5030886;28;20044;-84
2021/05/15 02:00:55;;;;;;;2.38;1.75;;;;;;;11.43;75.16;99642.28;5035169;28;20034;-84
2021/05/15 02:03:22;;;;;;;3.40;2.00;;;;;;;11.47;75.17;99646.47;5033050;28;20049;-84
2021/05/15 02:05:50;;;;;;;1.80;1.50;;;;;;;11.49;74.60;99647.19;5037542;28;20081;-84
2021/05/15 02:08:16;;;;;;;2.58;1.75;;;;;;;11.44;75.45;99644.00;5035283;28;20062;-84
2021/05/15 02:10:42;;;;;;;4.15;1.65;;;;;;;11.39;75.63;99646.06;5024196;28;20032;-83
2021/05/15 02:13:07;;;;;;;1.95;1.77;;;;;;;11.43;75.78;99639.66;5019857;28;20022;-83
2021/05/15 02:15:33;;;;;;;4.25;1.55;;;;;;;11.43;75.33;99633.50;5029368;28;20030;-85
2021/05/15 02:18:00;;;;;;;3.03;2.00;;;;;;;11.38;75.66;99635.56;5034561;28;20014;-83
2021/05/15 02:20:26;;;;;;;1.98;1.60;;;;;;;11.32;75.71;99623.56;5036512;28;20037;-84
2021/05/15 02:22:51;;;;;;;2.22;1.60;;;;;;;11.37;75.91;99637.38;5037495;28;20037;-84
2021/05/15 02:25:18;;;;;;;2.58;1.70;;;;;;;11.43;75.40;99631.69;5037424;28;20025;-84
2021/05/15 02:27:44;;;;;;;1.83;1.50;;;;;;;11.42;75.59;99634.44;5018573;28;20046;-85
2021/05/15 02:30:10;;;;;;;2.20;1.75;;;;;;;11.43;75.33;99639.66;5017876;28;20057;-84
2021/05/15 02:32:37;;;;;;;1.85;1.67;;;;;;;11.45;75.43;99635.09;5017026;28;20034;-85
2021/05/15 02:35:04;;;;;;;1.98;1.55;;;;;;;11.50;75.62;99622.38;5022545;28;20034;-85
2021/05/15 02:37:29;;;;;;;4.03;1.35;;;;;;;11.45;74.93;99624.50;5014148;28;20030;-83
2021/05/15 02:40:01;;;;;;;2.15;1.42;;;;;;;11.46;75.24;99614.75;5021569;28;20053;-85
2021/05/15 02:42:28;;;;;;;1.70;1.30;;;;;;;11.46;74.65;99610.28;5015976;28;20030;-81
2021/05/15 02:44:53;;;;;;;2.30;1.15;;;;;;;11.49;74.72;99625.97;5003344;28;20105;-83
2021/05/15 02:47:22;;;;;;;1.95;1.40;;;;;;;11.47;74.43;99629.72;5022221;28;20049;-83
2021/05/15 02:49:48;;;;;;;2.03;1.30;;;;;;;11.48;74.30;99623.47;5019141;28;20049;-83
2021/05/15 02:52:14;;;;;;;3.75;1.33;;;;;;;11.46;74.34;99617.41;5025695;28;20022;-83
2021/05/15 02:54:39;;;;;;;2.25;1.30;;;;;;;11.53;73.32;99608.94;5030425;28;20046;-84
2021/05/15 02:57:07;;;;;;;1.80;1.02;;;;;;;11.53;73.14;99613.41;5023777;28;20038;-84
2021/05/15 02:59:32;;;;;;;1.73;1.17;;;;;;;11.49;73.48;99610.06;5018514;28;20034;-84
2021/05/15 03:01:58;;;;;;;2.10;1.13;;;;;;;11.44;73.71;99614.84;5036736;28;20037;-84
2021/05/15 03:04:23;;;;;;;2.55;1.15;;;;;;;11.44;73.87;99614.84;5031864;28;20050;-83
2021/05/15 03:06:49;;;;;;;2.42;1.17;;;;;;;11.44;73.97;99608.69;5016078;28;20038;-84
2021/05/15 03:09:14;;;;;;;1.55;1.00;;;;;;;11.40;74.13;99621.28;5021607;28;20030;-84
2021/05/15 03:11:39;;;;;;;1.55;1.20;;;;;;;11.38;74.45;99614.34;5034542;28;20044;-84
2021/05/15 03:14:05;;;;;;;1.50;1.20;;;;;;;11.41;73.99;99615.03;5025202;28;20053;-84
2021/05/15 03:16:33;;;;;;;2.30;1.10;;;;;;;11.41;74.22;99606.22;5017369;28;20096;-83
2021/05/15 03:18:59;;;;;;;2.65;1.20;;;;;;;11.42;73.95;99603.47;5020949;28;22104;-84
2021/05/15 03:21:25;;;;;;;1.63;1.45;;;;;;;11.38;74.40;99601.97;5018488;28;20057;-83
2021/05/15 03:23:51;;;;;;;1.90;1.30;;;;;;;11.54;73.82;99610.66;5017927;28;20065;-85
2021/05/15 03:26:17;;;;;;;1.17;1.08;;;;;;;11.63;73.26;99611.03;5022351;28;20038;-83
2021/05/15 03:28:42;;;;;;;2.83;1.50;;;;;;;11.63;72.97;99613.69;5036996;28;20049;-83
2021/05/15 03:31:10;;;;;;;1.80;1.50;;;;;;;11.57;73.07;99610.47;5020367;28;20057;-84
2021/05/15 03:33:36;;;;;;;2.45;1.50;;;;;;;11.55;73.37;99614.16;5025564;28;20457;-84
2021/05/15 03:36:05;;;;;;;2.17;1.48;;;;;;;11.49;73.42;99603.97;5028165;28;20100;-83
2021/05/15 03:38:32;;;;;;;2.08;1.40;;;;;;;11.47;73.55;99614.66;5018508;28;20068;-83
2021/05/15 03:40:58;;;;;;;3.20;2.00;;;;;;;11.45;73.79;99613.91;5013337;28;20029;-84
2021/05/15 03:43:23;;;;;;;4.68;1.70;;;;;;;11.42;73.82;99610.56;5019197;28;20046;-83
2021/05/15 03:45:51;;;;;;;3.47;1.60;;;;;;;11.43;73.92;99609.63;5010811;28;20049;-84
2021/05/15 03:48:20;;;;;;;2.95;1.48;;;;;;;11.44;73.94;99622.78;4991881;28;20041;-83
2021/05/15 03:50:54;;;;;;;2.80;1.65;;;;;;;11.40;74.31;99615.13;5015183;28;20032;-84
2021/05/15 03:53:23;;;;;;;2.30;1.75;;;;;;;11.40;73.99;99610.66;5019551;28;20072;-86
2021/05/15 03:55:49;;;;;;;1.83;1.70;;;;;;;11.44;73.83;99621.94;5017817;28;20038;-83
2021/05/15 03:58:16;;;;;;;4.03;1.70;;;;;;;11.41;74.24;99616.81;5022689;28;20046;-85
2021/05/15 04:00:42;;;;;;;2.83;1.80;;;;;;;11.41;74.15;99614.16;5016551;28;20080;-84
2021/05/15 04:03:11;;;;;;;2.30;1.67;;;;;;;11.40;74.04;99610.66;5018197;28;20392;-85
2021/05/15 04:05:36;;;;;;;3.63;1.80;;;;;;;11.32;74.21;99606.81;5020442;28;20113;-83
2021/05/15 04:08:01;;;;;;;3.83;1.80;;;;;;;11.35;74.35;99614.53;5016200;28;20035;-85
2021/05/15 04:10:27;;;;;;;2.45;1.70;;;;;;;11.34;74.47;99604.88;5012545;28;20037;-84
2021/05/15 04:13:03;;;;;;;3.70;1.88;;;;;;;11.33;74.29;99603.22;5017093;28;20046;-84
2021/05/15 04:18:30;;;;;;;;;;;;;;;11.46;74.70;99612.09;4926164;29;20063;-84
2021/05/15 04:20:57;;;;;;;3.75;1.90;;;;;;;11.51;74.00;99610.84;5001758;28;19949;-83
2021/05/15 04:23:23;;;;;;;2.58;2.00;;;;;;;11.52;74.33;99601.94;5026356;28;20097;-84
2021/05/15 04:25:49;;;;;;;3.30;2.10;;;;;;;11.57;74.11;99613.09;5022335;28;20029;-84
2021/05/15 04:28:15;;;;;;;2.45;1.98;;;;;;;11.60;73.99;99610.28;5031446;28;20097;-83
2021/05/15 04:30:40;;;;;;;2.60;1.70;;;;;;;11.66;73.25;99616.13;5032241;28;20061;-84
2021/05/15 04:33:06;;;;;;;2.88;1.80;;;;;;;11.64;73.42;99616.25;5029485;28;20022;-84
2021/05/15 04:35:34;;;;;;;2.30;1.70;;;;;;;11.62;73.96;99614.63;5015318;28;20121;-84
2021/05/15 04:38:01;;;;;;;1.70;1.60;;;;;;;11.58;73.70;99614.81;5029832;28;20161;-84
2021/05/15 04:40:27;;;;;;;2.00;1.80;;;;;;;11.59;73.02;99620.97;5031527;28;20086;-85
2021/05/15 04:42:52;;;;;;;2.67;1.70;;;;;;;11.60;73.34;99622.69;5022142;28;20069;-84
2021/05/15 04:45:19;;;;;;;2.60;1.80;;;;;;;11.57;73.69;99618.41;5021485;28;20042;-84
2021/05/15 04:47:44;;;;;;;3.20;2.00;;;;;;;11.58;73.53;99620.13;5033086;28;20048;-84
2021/05/15 04:50:12;;;;;;;3.15;1.90;;;;;;;11.63;73.51;99622.50;5031638;28;20038;-84
2021/05/15 04:52:38;;;;;;;2.90;2.15;;;;;;;11.64;72.54;99620.69;5026619;28;20034;-84
2021/05/15 04:55:05;;;;;;;3.42;2.10;;;;;;;11.59;72.60;99621.81;5027655;28;20068;-84
2021/05/15 04:57:31;;;;;;;2.85;2.30;;;;;;;11.56;72.70;99624.66;5026706;28;20064;-84
2021/05/15 04:59:56;;;;;;;3.63;2.28;;;;;;;11.60;73.08;99618.22;5027797;28;20063;-84
2021/05/15 05:02:22;;;;;;;4.22;2.40;;;;;;;11.63;72.60;99626.94;5029837;28;20022;-84
2021/05/15 05:04:47;;;;;;;2.42;2.05;;;;;;;11.60;72.67;99620.88;5027816;28;20038;-84
2021/05/15 05:07:13;;;;;;;2.38;2.17;;;;;;;11.63;72.29;99621.63;5026387;28;20034;-84
2021/05/15 05:09:39;;;;;;;2.50;2.20;;;;;;;11.70;72.36;99622.94;5031524;28;20038;-85
2021/05/15 05:12:04;;;;;;;3.38;2.25;;;;;;;11.76;72.45;99627.88;5022707;28;20056;-85
2021/05/15 05:14:30;;;;;;;2.40;2.20;;;;;;;11.83;72.13;99629.19;5026166;28;20037;-85
2021/05/15 05:16:55;;;;;;;3.45;2.00;;;;;;;11.85;71.76;99619.31;5025822;28;20061;-85
2021/05/15 05:19:23;;;;;;;2.47;2.22;;;;;;;11.96;72.18;99624.81;5018489;28;20030;-84
2021/05/15 05:21:50;;;;;;;2.05;1.73;;;;;;;12.16;71.41;99621.69;5014724;28;20044;-84
2021/05/15 05:24:18;;;;;;;2.25;2.05;;;;;;;12.25;70.88;99622.91;4999115;28;20348;-84
2021/05/15 05:26:45;;;;;;;2.38;1.80;;;;;;;12.29;69.94;99625.22;5017129;28;20059;-85
2021/05/15 05:29:11;;;;;;;2.15;1.80;;;;;;;12.29;69.76;99621.72;5023579;28;20041;-84
2021/05/15 05:31:38;;;;;;;2.78;2.00;;;;;;;12.24;70.13;99618.53;5026558;28;20041;-85
2021/05/15 05:34:09;;;;;;;2.75;2.05;;;;;;;12.23;70.11;99620.34;5017996;28;20049;-85
2021/05/15 05:36:38;;;;;;;2.22;1.92;;;;;;;12.21;70.29;99619.59;5020526;28;20153;-83
2021/05/15 05:39:09;;;;;;;2.03;1.88;;;;;;;12.25;70.34;99626.41;5020429;28;20034;-84
2021/05/15 05:41:35;;;;;;;3.60;2.10;;;;;;;12.22;69.95;99623.09;5015822;28;20056;-84
2021/05/15 05:44:00;;;;;;;2.53;1.83;;;;;;;12.28;69.93;99622.69;5013877;28;20037;-84
2021/05/15 05:46:25;;;;;;;2.30;2.00;;;;;;;12.49;69.35;99623.06;5011222;28;20038;-84
2021/05/15 05:48:51;;;;;;;4.78;2.20;;;;;;;12.87;67.73;99623.13;5013324;28;20100;-84
2021/05/15 05:51:17;;;;;;;3.53;1.90;;;;;;;13.27;66.12;99619.44;4996637;28;20481;-84
2021/05/15 05:53:42;;;;;;;2.10;1.90;;;;;;;13.53;64.79;99619.41;5020498;28;20050;-84
2021/05/15 05:56:07;;;;;;;1.88;1.65;;;;;;;13.52;65.45;99610.59;5015347;28;20042;-84
2021/05/15 05:58:33;;;;;;;2.17;1.85;;;;;;;13.56;64.45;99614.69;5014250;28;20046;-84
2021/05/15 06:00:59;;;;;;;2.10;1.90;;;;;;;13.56;64.17;99622.69;4995775;28;20045;-85
2021/05/15 06:03:25;;;;;;;2.13;1.90;;;;;;;13.46;64.00;99616.31;5015792;28;20053;-85
2021/05/15 06:05:52;;;;;;;1.98;1.80;;;;;;;13.43;63.44;99621.00;5024298;28;20035;-84
2021/05/15 06:08:18;;;;;;;2.38;1.90;;;;;;;13.50;63.61;99604.50;5030529;28;20040;-85
2021/05/15 06:10:43;;;;;;;4.18;1.95;;;;;;;13.90;62.62;99609.59;5017843;28;20045;-83
2021/05/15 06:13:10;;;;;;;3.97;2.10;;;;;;;14.03;62.14;99613.06;5018786;28;20026;-83
2021/05/15 06:15:41;;;;;;;3.03;2.00;;;;;;;14.07;61.90;99606.56;5021307;28;20036;-82
2021/05/15 06:18:07;;;;;;;2.63;2.30;;;;;;;14.28;61.89;99604.13;5033424;28;20018;-82
2021/05/15 06:20:34;;;;;;;2.35;2.15;;;;;;;14.41;60.54;99610.25;5030964;28;20539;-82
2021/05/15 06:23:03;;;;;;;4.50;2.45;;;;;;;15.43;58.55;99605.81;5016161;28;20045;-83
2021/05/15 06:25:28;;;;;;;2.30;2.10;;;;;;;16.01;55.03;99606.50;5013163;28;20034;-83
2021/05/15 06:27:54;;;;;;;3.20;2.30;;;;;;;15.80;54.95;99602.91;5013789;28;20061;-83
2021/05/15 06:30:20;;;;;;;3.40;2.10;;;;;;;15.78;55.90;99608.38;5012408;28;20617;-83
2021/05/15 06:32:45;;;;;;;2.85;2.03;;;;;;;15.74;55.73;99603.41;5019246;28;20034;-82
2021/05/15 06:35:11;;;;;;;2.58;2.20;;;;;;;15.62;54.87;99596.38;5023072;28;20642;-82
2021/05/15 06:37:38;;;;;;;2.63;2.40;;;;;;;15.37;55.65;99606.31;5019592;28;20129;-84
2021/05/15 06:40:05;;;;;;;4.88;2.30;;;;;;;15.87;55.00;99603.28;5018492;28;20093;-83
2021/05/15 06:42:30;;;;;;;2.85;2.22;;;;;;;17.18;50.75;99590.38;5025039;28;20046;-84
2021/05/15 06:44:56;;;;;;;3.90;2.30;;;;;;;17.37;49.52;99603.00;5019052;28;20048;-84
2021/05/15 06:47:25;;;;;;;4.47;2.47;;;;;;;16.71;50.06;99594.44;5015412;28;20062;-84
2021/05/15 06:49:50;;;;;;;4.10;2.33;;;;;;;16.20;52.62;99588.97;4997729;28;20451;-84
2021/05/15 06:52:17;;;;;;;4.20;2.50;;;;;;;15.81;53.91;99593.94;5016235;28;20053;-83
2021/05/15 06:54:44;;;;;;;4.22;2.40;;;;;;;15.51;54.59;99591.03;5018566;28;20026;-84
2021/05/15 06:57:10;;;;;;;3.30;2.42;;;;;;;15.24;54.81;99591.41;5017017;28;20037;-84
2021/05/15 06:59:35;;;;;;;4.43;2.65;;;;;;;16.22;52.83;99595.00;5024111;28;20504;-84
2021/05/15 07:02:02;;;;;;;3.40;2.33;;;;;;;17.61;48.48;99583.94;5019216;28;20402;-84
2021/05/15 07:04:28;;;;;;;2.45;2.05;;;;;;;17.44;48.67;99596.13;5019846;28;20049;-83
2021/05/15 07:06:54;;;;;;;2.72;2.00;;;;;;;16.93;49.88;99583.63;5025862;28;20040;-84
2021/05/15 07:09:22;;;;;;;2.42;2.20;;;;;;;16.18;50.12;99590.91;5009683;28;20050;-83
2021/05/15 07:11:50;;;;;;;3.45;2.58;;;;;;;16.06;50.86;99595.44;5029245;28;20077;-83
2021/05/15 07:14:17;;;;;;;3.25;2.20;;;;;;;16.57;49.55;99592.06;5010907;28;20029;-82
2021/05/15 07:16:42;;;;;;;3.13;2.30;;;;;;;16.39;49.84;99589.97;5030189;28;20046;-84
2021/05/15 07:19:08;;;;;;;2.83;2.00;;;;;;;16.14;51.68;99591.16;5016682;28;20034;-84
2021/05/15 07:21:37;;;;;;;2.90;1.90;;;;;;;16.99;49.39;99592.97;5031909;28;20084;-84
2021/05/15 07:24:03;;;;;;;3.20;2.42;;;;;;;17.54;45.61;99594.34;5033402;28;20053;-83
2021/05/15 07:26:29;;;;;;;6.35;2.05;;;;;;;18.11;45.98;99587.44;5022190;28;20042;-84
2021/05/15 07:28:55;;;;;;;2.63;2.42;;;;;;;17.79;45.20;99588.50;5032847;28;20049;-84
2021/05/15 07:31:23;;;;;;;5.43;2.17;;;;;;;17.60;46.96;99587.59;5030154;28;20057;-83
2021/05/15 07:33:48;;;;;;;3.53;3.20;;;;;;;17.16;47.68;99578.94;5033886;28;20021;-84
2021/05/15 07:36:14;;;;;;;4.75;3.85;;;;;;;16.95;49.16;99576.31;5034566;28;20052;-84
2021/05/15 07:38:41;;;;;;;4.97;3.47;;;;;;;17.51;48.19;99583.88;5025383;28;20045;-84
2021/05/15 07:41:07;;;;;;;5.18;3.42;;;;;;;18.10;46.98;99573.19;5030356;28;20034;-84
2021/05/15 07:43:34;;;;;;;5.68;3.50;;;;;;;18.09;46.90;99578.72;5035581;28;20042;-84
2021/05/15 07:46:00;;;;;;;4.88;3.67;;;;;;;17.70;46.97;99586.66;5033963;28;20062;-84
2021/05/15 07:48:29;;;;;;;3.63;3.05;;;;;;;17.14;48.55;99576.44;5038735;28;20056;-84
2021/05/15 07:50:56;;;;;;;4.30;3.40;;;;;;;16.43;49.62;99574.53;5015186;28;20072;-83
2021/05/15 07:53:26;;;;;;;;;;;;;;;16.22;50.49;99584.31;5020076;28;20065;-83
2021/05/15 07:55:53;;;;;;;4.28;3.22;;;;;;;17.13;49.57;99572.06;5029098;28;20004;-83
2021/05/15 07:58:19;;;;;;;4.32;2.75;;;;;;;18.31;47.00;99566.84;5037091;28;20094;-83
2021/05/15 08:00:45;;;;;;;4.28;2.95;;;;;;;19.42;43.84;99578.66;5038486;28;20042;-83
2021/05/15 08:03:14;;;;;;;3.15;2.55;;;;;;;20.29;40.15;99572.78;5030002;28;20040;-84
2021/05/15 08:05:40;;;;;;;2.53;2.13;;;;;;;20.51;40.24;99569.63;5036285;28;20061;-83
2021/05/15 08:08:06;;;;;;;3.10;2.60;;;;;;;20.52;37.75;99568.63;5036014;28;20042;-83
2021/05/15 08:10:31;;;;;;;2.80;2.50;;;;;;;19.67;40.03;99587.91;5043138;28;20163;-83
2021/05/15 08:12:59;;;;;;;2.80;2.53;;;;;;;18.89;42.22;99573.03;5035137;28;20037;-84
2021/05/15 08:15:25;;;;;;;3.25;2.38;;;;;;;18.58;42.78;99570.53;5016609;28;20034;-84
2021/05/15 08:17:54;;;;;;;3.05;2.30;;;;;;;18.67;42.18;99573.38;5028850;28;20048;-82
2021/05/15 08:20:21;;;;;;;4.00;1.95;;;;;;;18.76;41.66;99578.69;5033579;28;20042;-84
2021/05/15 08:22:46;;;;;;;3.50;2.05;;;;;;;18.88;41.19;99566.00;5027135;28;20030;-83
2021/05/15 08:25:12;;;;;;;4.38;2.53;;;;;;;18.88;40.96;99566.84;5035210;28;20034;-84
2021/05/15 08:27:40;;;;;;;3.20;1.95;;;;;;;18.50;42.15;99562.34;5035349;28;20033;-83
2021/05/15 08:30:16;;;;;;;2.72;2.10;;;;;;;18.09;42.72;99559.97;5029086;28;20093;-82
2021/05/15 08:32:42;;;;;;;2.22;2.03;;;;;;;17.70;44.04;99562.56;5035650;28;20030;-80
2021/05/15 08:35:08;;;;;;;3.53;2.40;;;;;;;17.95;43.54;99554.97;5037610;28;20037;-82
2021/05/15 08:37:38;;;;;;;5.03;2.70;;;;;;;17.83;43.82;99549.75;5040133;28;20048;-87
2021/05/15 08:40:07;;;;;;;2.80;2.25;;;;;;;17.49;45.36;99553.72;5034510;28;20107;-82
2021/05/15 08:42:35;;;;;;;2.30;2.10;;;;;;;17.37;46.85;99557.50;5034693;28;20057;-83
2021/05/15 08:45:04;;;;;;;2.97;2.50;;;;;;;17.41;46.98;99548.22;5037932;28;20088;-79
2021/05/15 08:47:32;;;;;;;3.70;2.20;;;;;;;17.53;46.56;99541.78;5019264;28;20042;-80
2021/05/15 08:50:10;;;;;;;2.83;2.10;;;;;;;17.64;46.46;99540.84;5021254;28;20041;-82
2021/05/15 08:52:38;;;;;;;2.65;2.10;;;;;;;17.70;44.72;99533.13;5022135;28;20164;-83
2021/05/15 08:55:10;;;;;;;2.70;2.45;;;;;;;17.70;43.49;99549.19;5020622;28;20323;-83
2021/05/15 08:57:36;;;;;;;2.80;2.60;;;;;;;17.40;44.01;99549.22;5015424;28;20147;-81
2021/05/15 09:00:17;;;;;;;2.78;2.58;;;;;;;17.09;44.75;99533.19;5008992;28;20040;-85
2021/05/15 09:02:56;;;;;;;3.58;2.70;;;;;;;16.99;45.73;99540.31;5015607;28;20050;-81
2021/05/15 09:05:24;;;;;;;4.32;2.50;;;;;;;16.92;45.84;99540.97;5019172;28;20124;-84
2021/05/15 09:07:59;;;;;;;4.65;2.92;;;;;;;16.95;45.43;99541.56;5029003;28;20084;-84
2021/05/15 09:10:32;;;;;;;6.00;3.42;;;;;;;16.70;45.84;99541.97;5025131;28;20050;-84
2021/05/15 09:13:08;;;;;;;3.85;3.42;;;;;;;16.48;46.90;99546.44;5019304;28;20054;-83
2021/05/15 09:15:42;;;;;;;4.28;3.33;;;;;;;16.41;47.79;99539.91;5024236;28;20091;-85
2021/05/15 09:18:09;;;;;;;4.82;3.30;;;;;;;16.49;48.19;99540.13;5014378;28;20453;-82
2021/05/15 09:20:39;;;;;;;6.05;3.75;;;;;;;16.69;47.91;99535.75;5018077;28;20085;-83
2021/05/15 09:23:11;;;;;;;6.78;3.28;;;;;;;16.93;47.11;99530.16;5029279;28;20138;-82
2021/05/15 09:26:09;;;;;;;5.28;3.67;;;;;;;16.89;47.03;99531.38;5017844;28;20038;-84
2021/05/15 09:28:53;;;;;;;3.65;2.90;;;;;;;17.22;46.36;99540.13;5022124;28;20054;-84
2021/05/15 09:31:21;;;;;;;6.07;3.10;;;;;;;17.57;45.45;99521.78;5028946;28;20061;-84
2021/05/15 09:33:53;;;;;;;3.35;2.92;;;;;;;17.81;44.82;99524.09;5032181;28;20076;-81
2021/05/15 09:36:23;;;;;;;3.58;3.00;;;;;;;17.67;45.48;99519.16;5001338;28;20066;-81
2021/05/15 09:39:03;;;;;;;3.60;3.03;;;;;;;17.53;45.43;99520.34;5022039;28;20058;-81
2021/05/15 09:41:35;;;;;;;3.50;2.78;;;;;;;17.59;46.10;99519.81;5015200;28;20404;-81
2021/05/15 09:44:03;;;;;;;4.15;3.00;;;;;;;17.53;45.81;99509.66;5017712;28;20068;-81
2021/05/15 09:46:33;;;;;;;3.80;2.97;;;;;;;17.29;47.19;99523.41;4998696;28;20054;-80
2021/05/15 09:49:00;;;;;;;5.15;3.25;;;;;;;17.11;47.94;99512.50;5020314;28;20059;-82
2021/05/15 09:51:27;;;;;;;3.42;3.10;;;;;;;16.81;48.39;99509.81;5015968;28;20572;-81
2021/05/15 09:54:09;;;;;;;3.88;3.28;;;;;;;16.51;49.44;99515.09;4997790;28;20058;-80
2021/05/15 09:56:36;;;;;;;3.83;3.25;;;;;;;16.15;51.23;99517.22;5016332;28;20069;-80
2021/05/15 09:59:04;;;;;;;3.72;3.22;;;;;;;15.99;51.54;99511.47;5016354;28;20061;-78
2021/05/15 10:01:42;;;;;;;4.13;3.03;;;;;;;16.14;51.86;99508.38;5010808;28;20140;-80
2021/05/15 10:04:10;;;;;;;3.00;2.72;;;;;;;16.28;51.58;99504.53;5018765;28;20074;-81
2021/05/15 10:06:51;;;;;;;5.43;2.75;;;;;;;16.36;51.05;99510.09;5009633;28;20124;-85
2021/05/15 10:09:25;;;;;;;4.95;2.33;;;;;;;16.39;51.25;99508.97;5016621;28;20444;-83
2021/05/15 10:11:53;;;;;;;5.63;2.78;;;;;;;16.28;51.26;99507.19;5021178;28;20083;-82
2021/05/15 10:14:21;;;;;;;3.28;2.80;;;;;;;16.08;52.41;99516.03;5014858;28;20113;-81
2021/05/15 10:16:48;;;;;;;4.97;3.70;;;;;;;15.88;53.58;99516.88;5021294;28;20058;-84
2021/05/15 10:19:15;;;;;;;4.80;1.48;;;;;;;15.70;52.62;99530.75;5027396;28;20161;-82
2021/05/15 10:21:43;;;;;;;5.13;2.72;;;;;;;15.54;52.82;99543.59;5023976;28;20577;-85
2021/05/15 10:24:21;;;;;;;3.33;1.98;;;;;;;15.35;53.69;99540.72;5026210;28;20057;-84
2021/05/15 10:27:08;;;;;;;3.55;2.20;;;;;;;15.22;56.52;99527.53;5036126;28;20030;-83
2021/05/15 10:29:39;;;;;;;8.38;5.50;;;;;;;15.14;57.34;99529.09;5027193;28;20050;-84
2021/05/15 10:32:25;;;;;;;4.82;3.35;;;;;;;14.97;57.63;99531.25;5027362;28;20105;-83
2021/05/15 10:35:05;;;;;;;5.22;3.80;;;;;;;14.78;58.69;99525.72;5021233;28;20111;-85
2021/05/15 10:37:39;;;;;;;3.00;2.20;;;;;;;14.60;59.69;99527.13;5014196;28;20041;-84
2021/05/15 10:40:25;;;;;;;7.93;5.35;;;;;;;14.47;61.78;99510.41;5009955;28;20084;-83
2021/05/15 10:43:00;;;;;;;1.15;1.05;;;;;;;14.62;62.89;99507.41;5020075;28;20046;-83
2021/05/15 10:45:38;;;;;;;1.25;1.08;;;;;;;14.88;62.33;99513.34;5023623;28;20054;-83
2021/05/15 10:48:25;;;;;;;3.85;1.40;;;;;;;15.25;61.59;99505.94;5023992;28;20114;-85
2021/05/15 10:50:53;;;;;;;3.03;0.90;;;;;;;15.43;60.24;99498.25;5006714;28;20046;-84
2021/05/15 10:53:28;;;;;;;1.67;1.03;;;;;;;15.68;61.17;99494.47;5031361;28;20061;-83
2021/05/15 10:58:43;;;;;;;1.48;1.10;;;;;;;16.10;58.19;99484.72;5024441;28;20054;-83
2021/05/15 11:01:18;;;;;;;2.40;1.30;;;;;;;16.32;56.74;99479.25;5018006;28;20152;-84
2021/05/15 11:03:47;;;;;;;3.47;1.95;;;;;;;16.60;57.45;99477.72;5023136;28;20049;-83
2021/05/15 11:06:23;;;;;;;1.52;1.42;;;;;;;16.58;57.58;99473.50;5005324;28;20140;-85
2021/05/15 11:09:08;;;;;;;1.33;1.20;;;;;;;16.63;57.07;99473.97;5018573;28;20529;-85
2021/05/15 11:11:46;;;;;;;1.30;0.90;;;;;;;16.57;55.70;99467.28;5013104;28;20114;-85
2021/05/15 11:14:29;;;;;;;1.45;0.93;;;;;;;16.65;55.64;99466.69;5017726;28;20080;-84
2021/05/15 11:17:10;;;;;;;1.10;0.85;;;;;;;16.88;58.73;99460.16;5019924;28;20081;-85
2021/05/15 11:20:06;;;;;;;2.08;1.00;;;;;;;17.05;56.62;99453.31;5018794;28;20054;-83
2021/05/15 11:22:47;;;;;;;1.10;0.90;;;;;;;17.08;55.64;99447.72;5019215;28;20064;-84
2021/05/15 11:25:20;;;;;;;8.50;5.85;;;;;;;16.93;55.12;99439.22;5011749;28;20050;-84
2021/05/15 11:27:50;;;;;;;1.25;0.90;;;;;;;16.92;55.84;99432.19;5021102;28;20050;-84
2021/05/15 11:30:24;;;;;;;3.15;2.10;;;;;;;17.17;54.54;99436.19;5024303;28;20056;-83
2021/05/15 11:33:08;;;;;;;2.92;1.15;;;;;;;17.17;53.19;99430.81;5016334;28;20836;-83
2021/05/15 11:35:41;;;;;;;2.70;1.35;;;;;;;17.30;53.07;99430.59;5019311;28;20077;-83
2021/05/15 11:38:11;;;;;;;1.63;0.88;;;;;;;17.29;51.94;99431.59;5012800;28;20070;-86
2021/05/15 11:40:53;;;;;;;1.52;0.80;;;;;;;17.37;50.90;99413.84;5026472;28;20046;-83
2021/05/15 11:43:31;;;;;;;1.25;0.70;;;;;;;17.32;50.28;99429.44;5017760;28;20049;-82
2021/05/15 11:46:04;;;;;;;1.40;0.70;;;;;;;17.77;50.76;99421.78;5018189;28;20057;-82